SMZO/ORG METAR and TAF weather

Enter ICAO airport designator
Station Type Date Time Source
SMZO METAR 2021/07/30 00:00 UTC NOAA

SMZO 300000Z 05008KT 9999 SCT015CB FEW020CB 28/24 Q1014 NOSIG


Station Type Date Time Source
SMZO Decoded METAR 2021/07/30 00:00 UTC NOAA

Station name not available
Jul 29, 2021 - 08:00 PM EDT / 2021.07.30 0000 UTC
Wind: from the NE (050 degrees) at 9 MPH (8 KT):0
Visibility: greater than 7 mile(s):0
Sky conditions: partly cloudy
Weather: Cumulonimbus clouds observed
Temperature: 82 F (28 C)
Dew Point: 75 F (24 C)
Relative Humidity: 78%
Pressure (altimeter): 29.94 in. Hg (1014 hPa)
ob: SMZO 300000Z 05008KT 9999 SCT015CB FEW020CB 28/24 Q1014 NOSIG
cycle: 0

Station Type Date Time Source
SMZO TAF 2021/07/30 06:12 UTC NOAA

TAF TAF SMZO 300400Z 3006/3106 VRB02KT 9999 FEW010 SCT025 TX32/3017Z TN24/3009Z PROB30
TEMPO 3008/3010 4000 BR
FM301200 10006KT 9999 SCT015
TEMPO 3017/3021 4000 SHRA TSRA FEW015CB SCT020

Example: see airport list